Del Rio International Airport
KDRT : now visible

Airfield :











YOU CAN JOIN US ON...

 
LOGIN :

Register | Disclaimer

   EN    FR    IT 

 









Legend :    VFR   Marginal VFR   IFR   Intensive IFR   Very Intensive IFR
Visi :
Ceiling :
>= 8 km
>= 3000ft
5 to 8 km
1000 to 3000 ft
1500m to 5 km
500 to 1000 ft
800 to 1500m
200 to 500 ft
< 800m
< 200 ft
Symbols :   Thunderstorms  Fog  Heavy snow  Heavy precipitations  Wind > 20 kt






- Airport Elevation : 1002 ft


KDRT - Del Rio International

CURRENT METAR :
  • 272353Z AUTO 31008KT 7SM -RA BKN012 OVC020 06/03 A3003 RMK AO2 RAE2259B46 SLP168 P0000 60000 T00560033 10061 20056 53001 TSNO $

EXPIRED METARs :
  • 272350Z AUTO 32008KT 7SM -RA BKN014 OVC020 06/03 A3003 RMK AO2 RAE2259B46 P0000 TSNO $
  • 272253Z AUTO 32009KT 9SM -RA BKN015 OVC021 06/03 A3002 RMK AO2 RAB50 SLP164 P0000 T00560028 TSNO $
  • 272153Z AUTO 33010G18KT 10SM OVC018 06/03 A3003 RMK AO2 RAE18 SLP167 P0000 T00610028 TSNO $
  • 272135Z AUTO 33008G16KT 10SM SCT013 OVC020 06/03 A3003 RMK AO2 RAE18 P0000 T00560028 TSNO $

TAF KDRT
Valid from the 28 at 00:00 until the 29 at 00:00 UTC


272330Z 2800/2824 32010KT 6SM -DZ OVC015
FM280200 33012KT 5SM -DZ BR SCT005 OVC008
FM280900 32015G25KT P6SM FEW250
KZHU FIR / North America



MET'MAP, your aeronautical weather chart ! - Copyright ORBIFLY December 2007 - Disclaimer

ORBIFLY MET'MAP TEAM :

Programming & Development : Alexandra Zaïnal
Concept & original design : Baudouin d'Aumeries
Assistance for programming : Marc-Olivier Méhu
Technical & hardware support : Manuel Goepfert

Contact : metmap@orbifly.com




SOURCES & CREDITS :

   NOAA       Earth
Advisory